sensor_id;sensor_type;location;lat;lon;timestamp;P1;durP1;ratioP1;P2;durP2;ratioP2
60935;SDS011;46804;51.786;19.520;2023-03-01T00:01:17;21.10;;;11.60;;
60935;SDS011;46804;51.786;19.520;2023-03-01T00:05:22;23.08;;;10.07;;
60935;SDS011;46804;51.786;19.520;2023-03-01T00:09:22;28.50;;;11.88;;
60935;SDS011;46804;51.786;19.520;2023-03-01T00:13:23;26.73;;;12.50;;
60935;SDS011;46804;51.786;19.520;2023-03-01T00:17:23;25.38;;;14.10;;
60935;SDS011;46804;51.786;19.520;2023-03-01T00:21:24;30.42;;;14.73;;
60935;SDS011;46804;51.786;19.520;2023-03-01T00:25:26;27.30;;;12.65;;
60935;SDS011;46804;51.786;19.520;2023-03-01T00:29:26;29.67;;;12.27;;
60935;SDS011;46804;51.786;19.520;2023-03-01T00:33:27;31.33;;;13.25;;
60935;SDS011;46804;51.786;19.520;2023-03-01T00:37:27;30.35;;;14.55;;
60935;SDS011;46804;51.786;19.520;2023-03-01T00:41:28;24.38;;;14.07;;
60935;SDS011;46804;51.786;19.520;2023-03-01T00:45:29;26.67;;;14.30;;
60935;SDS011;46804;51.786;19.520;2023-03-01T00:49:31;23.25;;;12.63;;
60935;SDS011;46804;51.786;19.520;2023-03-01T00:53:32;33.45;;;12.15;;
60935;SDS011;46804;51.786;19.520;2023-03-01T00:57:33;25.20;;;12.45;;
60935;SDS011;46804;51.786;19.520;2023-03-01T01:01:34;25.38;;;11.52;;
60935;SDS011;46804;51.786;19.520;2023-03-01T01:05:34;28.10;;;11.45;;
60935;SDS011;46804;51.786;19.520;2023-03-01T01:09:35;22.90;;;11.35;;
60935;SDS011;46804;51.786;19.520;2023-03-01T01:13:37;31.25;;;12.77;;
60935;SDS011;46804;51.786;19.520;2023-03-01T01:17:38;34.05;;;16.65;;
60935;SDS011;46804;51.786;19.520;2023-03-01T01:21:39;26.55;;;12.27;;
60935;SDS011;46804;51.786;19.520;2023-03-01T01:25:43;27.05;;;11.52;;
60935;SDS011;46804;51.786;19.520;2023-03-01T01:29:44;25.17;;;13.35;;
60935;SDS011;46804;51.786;19.520;2023-03-01T01:33:44;29.73;;;13.98;;
60935;SDS011;46804;51.786;19.520;2023-03-01T01:37:46;28.02;;;12.07;;
60935;SDS011;46804;51.786;19.520;2023-03-01T01:41:46;28.48;;;13.60;;
60935;SDS011;46804;51.786;19.520;2023-03-01T01:45:48;24.30;;;12.35;;
60935;SDS011;46804;51.786;19.520;2023-03-01T01:49:49;27.77;;;14.60;;
60935;SDS011;46804;51.786;19.520;2023-03-01T01:53:55;21.13;;;13.57;;
60935;SDS011;46804;51.786;19.520;2023-03-01T01:58:02;25.27;;;12.40;;
60935;SDS011;46804;51.786;19.520;2023-03-01T02:02:07;20.33;;;10.82;;
60935;SDS011;46804;51.786;19.520;2023-03-01T02:06:19;22.25;;;11.18;;
60935;SDS011;46804;51.786;19.520;2023-03-01T02:10:29;23.13;;;10.43;;
60935;SDS011;46804;51.786;19.520;2023-03-01T02:14:33;19.35;;;9.82;;
60935;SDS011;46804;51.786;19.520;2023-03-01T02:18:34;19.88;;;9.55;;
60935;SDS011;46804;51.786;19.520;2023-03-01T02:22:35;25.90;;;11.48;;
60935;SDS011;46804;51.786;19.520;2023-03-01T02:26:42;21.73;;;12.20;;
60935;SDS011;46804;51.786;19.520;2023-03-01T02:30:48;18.20;;;11.45;;
60935;SDS011;46804;51.786;19.520;2023-03-01T02:35:10;37.72;;;15.20;;
60935;SDS011;46804;51.786;19.520;2023-03-01T02:39:15;62.05;;;21.02;;
60935;SDS011;46804;51.786;19.520;2023-03-01T02:43:20;34.53;;;14.85;;
60935;SDS011;46804;51.786;19.520;2023-03-01T02:47:24;34.15;;;12.65;;
60935;SDS011;46804;51.786;19.520;2023-03-01T02:51:47;21.33;;;10.75;;
60935;SDS011;46804;51.786;19.520;2023-03-01T02:55:50;16.27;;;9.05;;
60935;SDS011;46804;51.786;19.520;2023-03-01T02:59:51;18.60;;;10.73;;
60935;SDS011;46804;51.786;19.520;2023-03-01T03:03:54;26.65;;;11.30;;
60935;SDS011;46804;51.786;19.520;2023-03-01T03:07:55;27.98;;;10.57;;
60935;SDS011;46804;51.786;19.520;2023-03-01T03:11:56;17.65;;;10.43;;
60935;SDS011;46804;51.786;19.520;2023-03-01T03:15:57;19.15;;;10.73;;
60935;SDS011;46804;51.786;19.520;2023-03-01T03:19:58;28.23;;;11.55;;
60935;SDS011;46804;51.786;19.520;2023-03-01T03:24:01;23.02;;;11.35;;
60935;SDS011;46804;51.786;19.520;2023-03-01T03:28:03;20.55;;;10.63;;
60935;SDS011;46804;51.786;19.520;2023-03-01T03:32:09;23.55;;;11.95;;
60935;SDS011;46804;51.786;19.520;2023-03-01T03:36:14;22.10;;;12.05;;
60935;SDS011;46804;51.786;19.520;2023-03-01T03:40:20;22.83;;;10.90;;
60935;SDS011;46804;51.786;19.520;2023-03-01T03:44:20;21.00;;;10.52;;
60935;SDS011;46804;51.786;19.520;2023-03-01T03:48:21;17.75;;;9.80;;
60935;SDS011;46804;51.786;19.520;2023-03-01T03:52:22;18.80;;;9.50;;
60935;SDS011;46804;51.786;19.520;2023-03-01T03:56:23;15.07;;;9.18;;
60935;SDS011;46804;51.786;19.520;2023-03-01T04:00:26;23.63;;;12.10;;
60935;SDS011;46804;51.786;19.520;2023-03-01T04:04:26;23.98;;;11.93;;
60935;SDS011;46804;51.786;19.520;2023-03-01T04:08:27;14.00;;;9.48;;
60935;SDS011;46804;51.786;19.520;2023-03-01T04:12:29;19.40;;;11.40;;
60935;SDS011;46804;51.786;19.520;2023-03-01T04:16:29;19.48;;;10.00;;
60935;SDS011;46804;51.786;19.520;2023-03-01T04:20:31;29.65;;;11.45;;
60935;SDS011;46804;51.786;19.520;2023-03-01T04:24:35;17.80;;;9.82;;
60935;SDS011;46804;51.786;19.520;2023-03-01T04:28:37;15.52;;;9.45;;
60935;SDS011;46804;51.786;19.520;2023-03-01T04:32:40;19.92;;;8.95;;
60935;SDS011;46804;51.786;19.520;2023-03-01T04:36:41;19.85;;;9.77;;
60935;SDS011;46804;51.786;19.520;2023-03-01T04:40:42;17.48;;;10.10;;
60935;SDS011;46804;51.786;19.520;2023-03-01T04:44:43;25.45;;;11.48;;
60935;SDS011;46804;51.786;19.520;2023-03-01T04:48:45;22.77;;;12.75;;
60935;SDS011;46804;51.786;19.520;2023-03-01T04:52:47;23.65;;;12.75;;
60935;SDS011;46804;51.786;19.520;2023-03-01T04:56:49;28.80;;;14.70;;
60935;SDS011;46804;51.786;19.520;2023-03-01T05:00:49;32.65;;;12.40;;
60935;SDS011;46804;51.786;19.520;2023-03-01T05:04:50;32.10;;;14.00;;
60935;SDS011;46804;51.786;19.520;2023-03-01T05:08:51;28.55;;;15.45;;
60935;SDS011;46804;51.786;19.520;2023-03-01T05:12:52;33.60;;;14.57;;
60935;SDS011;46804;51.786;19.520;2023-03-01T05:16:53;20.80;;;12.95;;
60935;SDS011;46804;51.786;19.520;2023-03-01T05:20:54;29.83;;;13.55;;
60935;SDS011;46804;51.786;19.520;2023-03-01T05:24:58;25.00;;;11.77;;
60935;SDS011;46804;51.786;19.520;2023-03-01T05:28:59;22.85;;;12.40;;
60935;SDS011;46804;51.786;19.520;2023-03-01T05:33:00;23.45;;;10.20;;
60935;SDS011;46804;51.786;19.520;2023-03-01T05:37:01;30.27;;;12.50;;
60935;SDS011;46804;51.786;19.520;2023-03-01T05:41:02;33.83;;;13.43;;
60935;SDS011;46804;51.786;19.520;2023-03-01T05:45:03;17.35;;;10.00;;
60935;SDS011;46804;51.786;19.520;2023-03-01T05:49:04;22.83;;;11.23;;
60935;SDS011;46804;51.786;19.520;2023-03-01T05:53:15;22.90;;;10.98;;
60935;SDS011;46804;51.786;19.520;2023-03-01T05:57:18;21.58;;;11.02;;
60935;SDS011;46804;51.786;19.520;2023-03-01T06:01:19;22.63;;;10.52;;
60935;SDS011;46804;51.786;19.520;2023-03-01T06:05:19;27.10;;;11.32;;
60935;SDS011;46804;51.786;19.520;2023-03-01T06:09:20;27.02;;;10.90;;
60935;SDS011;46804;51.786;19.520;2023-03-01T06:13:21;28.58;;;12.15;;
60935;SDS011;46804;51.786;19.520;2023-03-01T06:17:23;28.17;;;12.90;;
60935;SDS011;46804;51.786;19.520;2023-03-01T06:21:24;28.05;;;14.70;;
60935;SDS011;46804;51.786;19.520;2023-03-01T06:25:25;31.42;;;15.45;;
60935;SDS011;46804;51.786;19.520;2023-03-01T06:29:27;31.38;;;13.40;;
60935;SDS011;46804;51.786;19.520;2023-03-01T06:33:28;28.15;;;15.93;;
60935;SDS011;46804;51.786;19.520;2023-03-01T06:37:28;32.25;;;13.50;;
60935;SDS011;46804;51.786;19.520;2023-03-01T06:41:29;27.42;;;15.02;;
60935;SDS011;46804;51.786;19.520;2023-03-01T06:45:30;31.13;;;14.23;;
60935;SDS011;46804;51.786;19.520;2023-03-01T06:49:30;36.33;;;16.75;;
60935;SDS011;46804;51.786;19.520;2023-03-01T06:53:31;40.70;;;18.85;;
60935;SDS011;46804;51.786;19.520;2023-03-01T06:57:32;40.88;;;18.35;;
60935;SDS011;46804;51.786;19.520;2023-03-01T07:01:33;42.45;;;18.02;;
60935;SDS011;46804;51.786;19.520;2023-03-01T07:05:33;42.85;;;18.40;;
60935;SDS011;46804;51.786;19.520;2023-03-01T07:09:34;46.38;;;22.90;;
60935;SDS011;46804;51.786;19.520;2023-03-01T07:13:35;48.15;;;20.25;;
60935;SDS011;46804;51.786;19.520;2023-03-01T07:17:36;44.42;;;19.00;;
60935;SDS011;46804;51.786;19.520;2023-03-01T07:21:37;38.50;;;18.92;;
60935;SDS011;46804;51.786;19.520;2023-03-01T07:25:40;38.17;;;17.65;;
60935;SDS011;46804;51.786;19.520;2023-03-01T07:29:41;35.85;;;17.23;;
60935;SDS011;46804;51.786;19.520;2023-03-01T07:33:42;39.03;;;17.88;;
60935;SDS011;46804;51.786;19.520;2023-03-01T07:37:43;37.42;;;16.33;;
60935;SDS011;46804;51.786;19.520;2023-03-01T07:41:44;36.92;;;18.75;;
60935;SDS011;46804;51.786;19.520;2023-03-01T07:45:44;34.58;;;16.58;;
60935;SDS011;46804;51.786;19.520;2023-03-01T07:49:45;32.65;;;18.20;;
60935;SDS011;46804;51.786;19.520;2023-03-01T07:53:46;42.55;;;17.80;;
60935;SDS011;46804;51.786;19.520;2023-03-01T07:57:48;42.10;;;18.38;;
60935;SDS011;46804;51.786;19.520;2023-03-01T08:01:49;37.58;;;17.52;;
60935;SDS011;46804;51.786;19.520;2023-03-01T08:05:49;39.80;;;18.60;;
60935;SDS011;46804;51.786;19.520;2023-03-01T08:09:50;38.03;;;16.08;;
60935;SDS011;46804;51.786;19.520;2023-03-01T08:13:51;32.17;;;15.95;;
60935;SDS011;46804;51.786;19.520;2023-03-01T08:17:51;28.77;;;14.45;;
60935;SDS011;46804;51.786;19.520;2023-03-01T08:21:52;25.98;;;12.60;;
60935;SDS011;46804;51.786;19.520;2023-03-01T08:25:53;27.13;;;12.13;;
60935;SDS011;46804;51.786;19.520;2023-03-01T08:29:53;24.52;;;12.32;;
60935;SDS011;46804;51.786;19.520;2023-03-01T08:33:55;25.95;;;12.02;;
60935;SDS011;46804;51.786;19.520;2023-03-01T08:41:58;27.23;;;11.23;;
60935;SDS011;46804;51.786;19.520;2023-03-01T08:45:59;24.83;;;12.32;;
60935;SDS011;46804;51.786;19.520;2023-03-01T08:50:00;23.98;;;11.98;;
60935;SDS011;46804;51.786;19.520;2023-03-01T08:54:00;21.13;;;10.90;;
60935;SDS011;46804;51.786;19.520;2023-03-01T08:58:01;24.20;;;10.70;;
60935;SDS011;46804;51.786;19.520;2023-03-01T09:02:02;19.98;;;10.43;;
60935;SDS011;46804;51.786;19.520;2023-03-01T09:06:04;18.63;;;9.48;;
60935;SDS011;46804;51.786;19.520;2023-03-01T09:14:08;12.35;;;7.05;;
60935;SDS011;46804;51.786;19.520;2023-03-01T09:18:09;16.92;;;8.10;;
60935;SDS011;46804;51.786;19.520;2023-03-01T09:22:10;17.08;;;8.57;;
60935;SDS011;46804;51.786;19.520;2023-03-01T09:26:15;19.88;;;8.82;;
60935;SDS011;46804;51.786;19.520;2023-03-01T09:30:19;18.10;;;8.18;;
60935;SDS011;46804;51.786;19.520;2023-03-01T09:34:21;18.42;;;8.80;;
60935;SDS011;46804;51.786;19.520;2023-03-01T09:38:23;14.50;;;8.20;;
60935;SDS011;46804;51.786;19.520;2023-03-01T09:42:25;11.95;;;6.63;;
60935;SDS011;46804;51.786;19.520;2023-03-01T09:46:27;15.15;;;8.40;;
60935;SDS011;46804;51.786;19.520;2023-03-01T09:50:31;19.30;;;8.60;;
60935;SDS011;46804;51.786;19.520;2023-03-01T09:54:35;16.15;;;8.35;;
60935;SDS011;46804;51.786;19.520;2023-03-01T09:58:41;16.73;;;7.93;;
60935;SDS011;46804;51.786;19.520;2023-03-01T10:11:52;15.23;;;8.48;;
60935;SDS011;46804;51.786;19.520;2023-03-01T10:16:03;15.07;;;7.53;;
60935;SDS011;46804;51.786;19.520;2023-03-01T10:20:21;17.38;;;9.52;;
60935;SDS011;46804;51.786;19.520;2023-03-01T10:24:23;20.73;;;9.80;;
60935;SDS011;46804;51.786;19.520;2023-03-01T10:32:36;19.67;;;9.77;;
60935;SDS011;46804;51.786;19.520;2023-03-01T10:36:38;18.92;;;9.48;;
60935;SDS011;46804;51.786;19.520;2023-03-01T10:40:50;17.60;;;8.95;;
60935;SDS011;46804;51.786;19.520;2023-03-01T10:49:38;19.23;;;9.63;;
60935;SDS011;46804;51.786;19.520;2023-03-01T10:53:43;22.63;;;10.95;;
60935;SDS011;46804;51.786;19.520;2023-03-01T10:57:50;17.55;;;9.88;;
60935;SDS011;46804;51.786;19.520;2023-03-01T11:06:38;16.08;;;8.57;;
60935;SDS011;46804;51.786;19.520;2023-03-01T11:10:40;18.45;;;9.43;;
60935;SDS011;46804;51.786;19.520;2023-03-01T11:14:47;17.27;;;8.68;;
60935;SDS011;46804;51.786;19.520;2023-03-01T11:19:23;17.73;;;8.85;;
60935;SDS011;46804;51.786;19.520;2023-03-01T11:23:21;18.33;;;8.20;;
60935;SDS011;46804;51.786;19.520;2023-03-01T11:27:24;16.23;;;8.27;;
60935;SDS011;46804;51.786;19.520;2023-03-01T11:31:28;18.83;;;9.05;;
60935;SDS011;46804;51.786;19.520;2023-03-01T11:35:29;16.23;;;8.40;;
60935;SDS011;46804;51.786;19.520;2023-03-01T11:48:11;14.93;;;8.63;;
60935;SDS011;46804;51.786;19.520;2023-03-01T11:56:46;14.95;;;8.55;;
60935;SDS011;46804;51.786;19.520;2023-03-01T12:05:41;17.00;;;8.55;;
60935;SDS011;46804;51.786;19.520;2023-03-01T12:10:34;14.10;;;7.15;;
60935;SDS011;46804;51.786;19.520;2023-03-01T12:14:27;13.73;;;6.35;;
60935;SDS011;46804;51.786;19.520;2023-03-01T12:35:52;12.60;;;5.75;;
60935;SDS011;46804;51.786;19.520;2023-03-01T12:40:15;9.20;;;4.97;;
60935;SDS011;46804;51.786;19.520;2023-03-01T12:44:30;10.35;;;5.05;;
60935;SDS011;46804;51.786;19.520;2023-03-01T12:53:24;7.97;;;4.78;;
60935;SDS011;46804;51.786;19.520;2023-03-01T12:57:42;11.48;;;5.25;;
60935;SDS011;46804;51.786;19.520;2023-03-01T13:02:10;13.10;;;5.53;;
60935;SDS011;46804;51.786;19.520;2023-03-01T13:06:18;10.90;;;5.45;;
60935;SDS011;46804;51.786;19.520;2023-03-01T13:14:54;8.65;;;5.03;;
60935;SDS011;46804;51.786;19.520;2023-03-01T13:19:09;10.68;;;5.45;;
60935;SDS011;46804;51.786;19.520;2023-03-01T13:23:37;9.73;;;5.07;;
60935;SDS011;46804;51.786;19.520;2023-03-01T13:27:39;8.87;;;5.33;;
60935;SDS011;46804;51.786;19.520;2023-03-01T13:35:41;9.77;;;5.63;;
60935;SDS011;46804;51.786;19.520;2023-03-01T13:39:42;9.68;;;5.25;;
60935;SDS011;46804;51.786;19.520;2023-03-01T13:43:44;11.60;;;5.53;;
60935;SDS011;46804;51.786;19.520;2023-03-01T13:47:49;11.35;;;5.95;;
60935;SDS011;46804;51.786;19.520;2023-03-01T13:51:54;9.48;;;5.45;;
60935;SDS011;46804;51.786;19.520;2023-03-01T13:55:55;9.27;;;5.57;;
60935;SDS011;46804;51.786;19.520;2023-03-01T13:59:58;10.63;;;5.72;;
60935;SDS011;46804;51.786;19.520;2023-03-01T14:03:59;13.35;;;6.68;;
60935;SDS011;46804;51.786;19.520;2023-03-01T14:08:01;10.90;;;5.72;;
60935;SDS011;46804;51.786;19.520;2023-03-01T14:20:58;13.73;;;5.88;;
60935;SDS011;46804;51.786;19.520;2023-03-01T14:25:00;11.07;;;5.20;;
60935;SDS011;46804;51.786;19.520;2023-03-01T14:29:23;13.43;;;6.10;;
60935;SDS011;46804;51.786;19.520;2023-03-01T14:33:35;11.32;;;5.65;;
60935;SDS011;46804;51.786;19.520;2023-03-01T14:37:39;13.15;;;6.47;;
60935;SDS011;46804;51.786;19.520;2023-03-01T14:41:40;12.32;;;5.75;;
60935;SDS011;46804;51.786;19.520;2023-03-01T14:45:42;11.35;;;5.68;;
60935;SDS011;46804;51.786;19.520;2023-03-01T14:49:49;7.68;;;4.78;;
60935;SDS011;46804;51.786;19.520;2023-03-01T14:53:55;11.10;;;5.93;;
60935;SDS011;46804;51.786;19.520;2023-03-01T14:57:57;11.52;;;5.65;;
60935;SDS011;46804;51.786;19.520;2023-03-01T15:01:58;10.05;;;5.22;;
60935;SDS011;46804;51.786;19.520;2023-03-01T15:06:01;8.68;;;4.60;;
60935;SDS011;46804;51.786;19.520;2023-03-01T15:10:03;10.63;;;5.65;;
60935;SDS011;46804;51.786;19.520;2023-03-01T15:14:25;11.05;;;5.93;;
60935;SDS011;46804;51.786;19.520;2023-03-01T15:18:28;10.13;;;5.78;;
60935;SDS011;46804;51.786;19.520;2023-03-01T15:22:30;10.02;;;5.43;;
60935;SDS011;46804;51.786;19.520;2023-03-01T15:26:40;10.93;;;5.43;;
60935;SDS011;46804;51.786;19.520;2023-03-01T15:30:43;11.43;;;5.78;;
60935;SDS011;46804;51.786;19.520;2023-03-01T15:34:43;12.70;;;6.28;;
60935;SDS011;46804;51.786;19.520;2023-03-01T15:38:51;10.80;;;5.20;;
60935;SDS011;46804;51.786;19.520;2023-03-01T15:42:54;13.35;;;5.72;;
60935;SDS011;46804;51.786;19.520;2023-03-01T15:46:56;13.55;;;7.43;;
60935;SDS011;46804;51.786;19.520;2023-03-01T15:50:57;12.80;;;6.32;;
60935;SDS011;46804;51.786;19.520;2023-03-01T15:55:00;12.95;;;6.25;;
60935;SDS011;46804;51.786;19.520;2023-03-01T15:59:02;10.98;;;5.82;;
60935;SDS011;46804;51.786;19.520;2023-03-01T16:03:03;13.45;;;6.18;;
60935;SDS011;46804;51.786;19.520;2023-03-01T16:07:05;13.82;;;5.85;;
60935;SDS011;46804;51.786;19.520;2023-03-01T16:11:09;16.10;;;5.72;;
60935;SDS011;46804;51.786;19.520;2023-03-01T16:15:22;13.43;;;6.15;;
60935;SDS011;46804;51.786;19.520;2023-03-01T16:19:25;15.80;;;6.40;;
60935;SDS011;46804;51.786;19.520;2023-03-01T16:23:25;12.60;;;6.35;;
60935;SDS011;46804;51.786;19.520;2023-03-01T16:27:26;15.45;;;6.35;;
60935;SDS011;46804;51.786;19.520;2023-03-01T16:31:27;14.77;;;6.43;;
60935;SDS011;46804;51.786;19.520;2023-03-01T16:35:29;16.45;;;6.95;;
60935;SDS011;46804;51.786;19.520;2023-03-01T16:39:29;13.57;;;6.65;;
60935;SDS011;46804;51.786;19.520;2023-03-01T16:43:30;11.82;;;6.75;;
60935;SDS011;46804;51.786;19.520;2023-03-01T16:47:31;13.70;;;7.82;;
60935;SDS011;46804;51.786;19.520;2023-03-01T16:51:33;15.95;;;6.80;;
60935;SDS011;46804;51.786;19.520;2023-03-01T16:55:36;19.15;;;7.43;;
60935;SDS011;46804;51.786;19.520;2023-03-01T16:59:38;15.80;;;7.72;;
60935;SDS011;46804;51.786;19.520;2023-03-01T17:03:39;17.98;;;7.60;;
60935;SDS011;46804;51.786;19.520;2023-03-01T17:07:40;17.98;;;7.53;;
60935;SDS011;46804;51.786;19.520;2023-03-01T17:11:41;19.13;;;7.05;;
60935;SDS011;46804;51.786;19.520;2023-03-01T17:15:41;19.63;;;7.57;;
60935;SDS011;46804;51.786;19.520;2023-03-01T17:19:42;17.33;;;8.07;;
60935;SDS011;46804;51.786;19.520;2023-03-01T17:23:44;19.17;;;9.07;;
60935;SDS011;46804;51.786;19.520;2023-03-01T17:27:46;24.17;;;11.52;;
60935;SDS011;46804;51.786;19.520;2023-03-01T17:31:47;31.67;;;12.48;;
60935;SDS011;46804;51.786;19.520;2023-03-01T17:35:48;36.38;;;15.15;;
60935;SDS011;46804;51.786;19.520;2023-03-01T17:39:49;35.10;;;14.13;;
60935;SDS011;46804;51.786;19.520;2023-03-01T17:43:50;39.17;;;15.30;;
60935;SDS011;46804;51.786;19.520;2023-03-01T17:47:51;42.10;;;15.98;;
60935;SDS011;46804;51.786;19.520;2023-03-01T17:51:52;41.17;;;16.02;;
60935;SDS011;46804;51.786;19.520;2023-03-01T17:55:58;40.63;;;16.30;;
60935;SDS011;46804;51.786;19.520;2023-03-01T18:00:04;41.08;;;16.65;;
60935;SDS011;46804;51.786;19.520;2023-03-01T18:04:05;32.97;;;15.77;;
60935;SDS011;46804;51.786;19.520;2023-03-01T18:08:06;37.00;;;17.40;;
60935;SDS011;46804;51.786;19.520;2023-03-01T18:12:07;37.25;;;16.83;;
60935;SDS011;46804;51.786;19.520;2023-03-01T18:16:09;37.92;;;18.20;;
60935;SDS011;46804;51.786;19.520;2023-03-01T18:20:11;39.28;;;17.02;;
60935;SDS011;46804;51.786;19.520;2023-03-01T18:24:12;40.00;;;17.63;;
60935;SDS011;46804;51.786;19.520;2023-03-01T18:28:13;47.90;;;18.98;;
60935;SDS011;46804;51.786;19.520;2023-03-01T18:32:14;41.55;;;18.73;;
60935;SDS011;46804;51.786;19.520;2023-03-01T18:36:23;41.75;;;18.20;;
60935;SDS011;46804;51.786;19.520;2023-03-01T18:40:25;34.72;;;16.80;;
60935;SDS011;46804;51.786;19.520;2023-03-01T18:44:26;38.35;;;17.75;;
60935;SDS011;46804;51.786;19.520;2023-03-01T18:48:26;46.28;;;19.30;;
60935;SDS011;46804;51.786;19.520;2023-03-01T18:52:29;44.90;;;18.83;;
60935;SDS011;46804;51.786;19.520;2023-03-01T18:56:30;41.10;;;18.75;;
60935;SDS011;46804;51.786;19.520;2023-03-01T19:00:32;42.30;;;18.47;;
60935;SDS011;46804;51.786;19.520;2023-03-01T19:04:33;44.90;;;19.27;;
60935;SDS011;46804;51.786;19.520;2023-03-01T19:08:34;44.03;;;20.02;;
60935;SDS011;46804;51.786;19.520;2023-03-01T19:12:34;48.40;;;19.45;;
60935;SDS011;46804;51.786;19.520;2023-03-01T19:16:35;43.08;;;19.17;;
60935;SDS011;46804;51.786;19.520;2023-03-01T19:20:36;52.03;;;20.77;;
60935;SDS011;46804;51.786;19.520;2023-03-01T19:24:37;45.30;;;19.88;;
60935;SDS011;46804;51.786;19.520;2023-03-01T19:28:38;46.30;;;20.45;;
60935;SDS011;46804;51.786;19.520;2023-03-01T19:32:39;58.80;;;21.45;;
60935;SDS011;46804;51.786;19.520;2023-03-01T19:36:40;43.35;;;18.75;;
60935;SDS011;46804;51.786;19.520;2023-03-01T19:40:42;53.83;;;18.38;;
60935;SDS011;46804;51.786;19.520;2023-03-01T19:44:43;38.67;;;18.08;;
60935;SDS011;46804;51.786;19.520;2023-03-01T19:48:43;45.80;;;19.58;;
60935;SDS011;46804;51.786;19.520;2023-03-01T19:52:44;45.75;;;18.90;;
60935;SDS011;46804;51.786;19.520;2023-03-01T19:56:45;45.80;;;18.00;;
60935;SDS011;46804;51.786;19.520;2023-03-01T20:00:46;47.10;;;19.08;;
60935;SDS011;46804;51.786;19.520;2023-03-01T20:04:47;44.85;;;20.13;;
60935;SDS011;46804;51.786;19.520;2023-03-01T20:08:48;38.28;;;17.50;;
60935;SDS011;46804;51.786;19.520;2023-03-01T20:12:48;38.20;;;17.55;;
60935;SDS011;46804;51.786;19.520;2023-03-01T20:16:50;43.92;;;16.95;;
60935;SDS011;46804;51.786;19.520;2023-03-01T20:20:51;38.80;;;19.13;;
60935;SDS011;46804;51.786;19.520;2023-03-01T20:24:52;46.20;;;18.50;;
60935;SDS011;46804;51.786;19.520;2023-03-01T20:28:53;46.88;;;17.45;;
60935;SDS011;46804;51.786;19.520;2023-03-01T20:32:56;45.42;;;18.60;;
60935;SDS011;46804;51.786;19.520;2023-03-01T20:36:57;47.00;;;17.70;;
60935;SDS011;46804;51.786;19.520;2023-03-01T20:41:01;43.63;;;18.75;;
60935;SDS011;46804;51.786;19.520;2023-03-01T20:45:06;42.72;;;19.55;;
60935;SDS011;46804;51.786;19.520;2023-03-01T20:49:07;42.22;;;19.40;;
60935;SDS011;46804;51.786;19.520;2023-03-01T20:53:09;51.00;;;20.02;;
60935;SDS011;46804;51.786;19.520;2023-03-01T20:57:10;48.65;;;21.05;;
60935;SDS011;46804;51.786;19.520;2023-03-01T21:01:15;41.60;;;21.00;;
60935;SDS011;46804;51.786;19.520;2023-03-01T21:05:18;49.33;;;23.23;;
60935;SDS011;46804;51.786;19.520;2023-03-01T21:09:19;49.70;;;20.98;;
60935;SDS011;46804;51.786;19.520;2023-03-01T21:13:20;54.05;;;21.80;;
60935;SDS011;46804;51.786;19.520;2023-03-01T21:17:21;47.75;;;21.00;;
60935;SDS011;46804;51.786;19.520;2023-03-01T21:21:22;51.47;;;20.08;;
60935;SDS011;46804;51.786;19.520;2023-03-01T21:25:23;36.10;;;17.08;;
60935;SDS011;46804;51.786;19.520;2023-03-01T21:29:25;42.47;;;16.27;;
60935;SDS011;46804;51.786;19.520;2023-03-01T21:33:26;45.28;;;19.65;;
60935;SDS011;46804;51.786;19.520;2023-03-01T21:37:26;50.05;;;19.85;;
60935;SDS011;46804;51.786;19.520;2023-03-01T21:41:28;53.58;;;20.75;;
60935;SDS011;46804;51.786;19.520;2023-03-01T21:45:33;52.80;;;20.58;;
60935;SDS011;46804;51.786;19.520;2023-03-01T21:49:34;53.30;;;22.77;;
60935;SDS011;46804;51.786;19.520;2023-03-01T21:53:35;69.43;;;23.88;;
60935;SDS011;46804;51.786;19.520;2023-03-01T21:57:37;41.20;;;20.98;;
60935;SDS011;46804;51.786;19.520;2023-03-01T22:01:43;47.50;;;21.17;;
60935;SDS011;46804;51.786;19.520;2023-03-01T22:05:52;47.33;;;21.25;;
60935;SDS011;46804;51.786;19.520;2023-03-01T22:09:57;46.97;;;20.33;;
60935;SDS011;46804;51.786;19.520;2023-03-01T22:13:58;39.75;;;18.45;;
60935;SDS011;46804;51.786;19.520;2023-03-01T22:17:59;36.97;;;18.48;;
60935;SDS011;46804;51.786;19.520;2023-03-01T22:21:59;50.78;;;19.58;;
60935;SDS011;46804;51.786;19.520;2023-03-01T22:26:00;38.97;;;19.00;;
60935;SDS011;46804;51.786;19.520;2023-03-01T22:30:01;52.33;;;19.95;;
60935;SDS011;46804;51.786;19.520;2023-03-01T22:34:04;44.72;;;20.20;;
60935;SDS011;46804;51.786;19.520;2023-03-01T22:38:05;48.90;;;21.80;;
60935;SDS011;46804;51.786;19.520;2023-03-01T22:42:06;43.65;;;19.45;;
60935;SDS011;46804;51.786;19.520;2023-03-01T22:46:10;47.50;;;21.15;;
60935;SDS011;46804;51.786;19.520;2023-03-01T22:50:12;43.00;;;20.60;;
60935;SDS011;46804;51.786;19.520;2023-03-01T22:54:15;53.38;;;20.27;;
60935;SDS011;46804;51.786;19.520;2023-03-01T22:58:17;44.47;;;19.90;;
60935;SDS011;46804;51.786;19.520;2023-03-01T23:02:18;44.20;;;17.77;;
60935;SDS011;46804;51.786;19.520;2023-03-01T23:06:19;37.72;;;16.23;;
60935;SDS011;46804;51.786;19.520;2023-03-01T23:10:20;43.03;;;18.30;;
60935;SDS011;46804;51.786;19.520;2023-03-01T23:14:21;37.50;;;18.23;;
60935;SDS011;46804;51.786;19.520;2023-03-01T23:18:23;44.17;;;18.48;;
60935;SDS011;46804;51.786;19.520;2023-03-01T23:22:24;38.60;;;18.00;;
60935;SDS011;46804;51.786;19.520;2023-03-01T23:26:25;42.78;;;17.63;;
60935;SDS011;46804;51.786;19.520;2023-03-01T23:30:26;36.25;;;17.25;;
60935;SDS011;46804;51.786;19.520;2023-03-01T23:34:27;41.75;;;17.73;;
60935;SDS011;46804;51.786;19.520;2023-03-01T23:38:28;39.10;;;14.95;;
60935;SDS011;46804;51.786;19.520;2023-03-01T23:42:29;46.97;;;15.35;;
60935;SDS011;46804;51.786;19.520;2023-03-01T23:46:31;28.92;;;13.65;;
60935;SDS011;46804;51.786;19.520;2023-03-01T23:50:34;35.05;;;15.85;;
60935;SDS011;46804;51.786;19.520;2023-03-01T23:54:41;30.42;;;14.80;;
60935;SDS011;46804;51.786;19.520;2023-03-01T23:58:41;70.78;;;22.48;;
